sim
Sign-in with your pilot id or email,
or register
Callsign
Passwort

Schedule Details

Flight Number: DLH1761 (2)
Departure: Larnaca International Airport (LCLK) at 14:25
Arrival: Munich Airport (EDDM) at 18:10
Route: Lufthansa Passenger Schedule. Enter filed route here before submitting Pirep.

Weather Information
Getting current METAR information for LCLK 241130Z 22017KT 9999 FEW028 32/19 Q1010 NOSIG
Getting current METAR information for EDDM 241150Z 18005KT 140V210 9999 FEW033 21/14 Q1010 NOSIG

Schedule Frequency

Route Map